sensor_id;sensor_type;location;lat;lon;timestamp;P1;durP1;ratioP1;P2;durP2;ratioP2
34019;SDS011;20895;51.034;3.742;2023-04-25T00:02:06;13.25;;;5.15;;
34019;SDS011;20895;51.034;3.742;2023-04-25T00:04:32;15.25;;;4.40;;
34019;SDS011;20895;51.034;3.742;2023-04-25T00:06:58;17.55;;;4.80;;
34019;SDS011;20895;51.034;3.742;2023-04-25T00:09:26;16.98;;;4.80;;
34019;SDS011;20895;51.034;3.742;2023-04-25T00:11:52;22.20;;;5.45;;
34019;SDS011;20895;51.034;3.742;2023-04-25T00:14:17;17.33;;;6.20;;
34019;SDS011;20895;51.034;3.742;2023-04-25T00:16:42;17.05;;;5.40;;
34019;SDS011;20895;51.034;3.742;2023-04-25T00:19:09;11.10;;;4.32;;
34019;SDS011;20895;51.034;3.742;2023-04-25T00:21:34;18.08;;;5.82;;
34019;SDS011;20895;51.034;3.742;2023-04-25T00:24:00;15.60;;;4.78;;
34019;SDS011;20895;51.034;3.742;2023-04-25T00:26:27;16.85;;;5.10;;
34019;SDS011;20895;51.034;3.742;2023-04-25T00:28:52;18.92;;;5.38;;
34019;SDS011;20895;51.034;3.742;2023-04-25T00:31:17;19.85;;;5.05;;
34019;SDS011;20895;51.034;3.742;2023-04-25T00:33:43;18.50;;;6.00;;
34019;SDS011;20895;51.034;3.742;2023-04-25T00:36:08;17.65;;;5.57;;
34019;SDS011;20895;51.034;3.742;2023-04-25T00:38:34;21.08;;;5.15;;
34019;SDS011;20895;51.034;3.742;2023-04-25T00:40:59;17.30;;;6.05;;
34019;SDS011;20895;51.034;3.742;2023-04-25T00:43:25;26.48;;;10.73;;
34019;SDS011;20895;51.034;3.742;2023-04-25T00:45:51;19.02;;;5.07;;
34019;SDS011;20895;51.034;3.742;2023-04-25T00:48:17;18.90;;;5.35;;
34019;SDS011;20895;51.034;3.742;2023-04-25T00:50:43;14.70;;;5.75;;
34019;SDS011;20895;51.034;3.742;2023-04-25T00:53:09;17.45;;;6.10;;
34019;SDS011;20895;51.034;3.742;2023-04-25T00:55:35;15.05;;;5.72;;
34019;SDS011;20895;51.034;3.742;2023-04-25T00:58:01;13.02;;;4.25;;
34019;SDS011;20895;51.034;3.742;2023-04-25T01:00:26;17.83;;;4.55;;
34019;SDS011;20895;51.034;3.742;2023-04-25T01:02:51;18.58;;;4.32;;
34019;SDS011;20895;51.034;3.742;2023-04-25T01:05:17;22.20;;;5.00;;
34019;SDS011;20895;51.034;3.742;2023-04-25T01:07:43;13.48;;;5.15;;
34019;SDS011;20895;51.034;3.742;2023-04-25T01:10:10;17.10;;;4.70;;
34019;SDS011;20895;51.034;3.742;2023-04-25T01:12:35;17.77;;;4.90;;
34019;SDS011;20895;51.034;3.742;2023-04-25T01:15:00;16.98;;;4.68;;
34019;SDS011;20895;51.034;3.742;2023-04-25T01:17:26;14.63;;;3.97;;
34019;SDS011;20895;51.034;3.742;2023-04-25T01:19:52;19.58;;;5.47;;
34019;SDS011;20895;51.034;3.742;2023-04-25T01:22:17;15.00;;;4.63;;
34019;SDS011;20895;51.034;3.742;2023-04-25T01:24:43;22.42;;;5.32;;
34019;SDS011;20895;51.034;3.742;2023-04-25T01:27:08;16.42;;;4.82;;
34019;SDS011;20895;51.034;3.742;2023-04-25T01:29:34;17.30;;;5.32;;
34019;SDS011;20895;51.034;3.742;2023-04-25T01:32:00;16.42;;;6.18;;
34019;SDS011;20895;51.034;3.742;2023-04-25T01:34:25;27.98;;;7.47;;
34019;SDS011;20895;51.034;3.742;2023-04-25T01:36:51;20.92;;;5.07;;
34019;SDS011;20895;51.034;3.742;2023-04-25T01:39:17;14.38;;;4.25;;
34019;SDS011;20895;51.034;3.742;2023-04-25T01:41:42;16.25;;;5.05;;
34019;SDS011;20895;51.034;3.742;2023-04-25T01:44:08;15.50;;;4.60;;
34019;SDS011;20895;51.034;3.742;2023-04-25T01:46:33;20.42;;;4.95;;
34019;SDS011;20895;51.034;3.742;2023-04-25T01:49:02;20.88;;;5.10;;
34019;SDS011;20895;51.034;3.742;2023-04-25T01:51:27;20.90;;;5.78;;
34019;SDS011;20895;51.034;3.742;2023-04-25T01:53:53;13.95;;;4.85;;
34019;SDS011;20895;51.034;3.742;2023-04-25T01:56:19;20.13;;;4.25;;
34019;SDS011;20895;51.034;3.742;2023-04-25T01:58:44;15.23;;;4.13;;
34019;SDS011;20895;51.034;3.742;2023-04-25T02:01:09;13.05;;;5.00;;
34019;SDS011;20895;51.034;3.742;2023-04-25T02:03:35;18.98;;;5.43;;
34019;SDS011;20895;51.034;3.742;2023-04-25T02:06:01;16.73;;;5.28;;
34019;SDS011;20895;51.034;3.742;2023-04-25T02:08:26;17.20;;;4.53;;
34019;SDS011;20895;51.034;3.742;2023-04-25T02:10:51;24.52;;;5.70;;
34019;SDS011;20895;51.034;3.742;2023-04-25T02:13:17;21.20;;;5.00;;
34019;SDS011;20895;51.034;3.742;2023-04-25T02:15:42;20.85;;;5.47;;
34019;SDS011;20895;51.034;3.742;2023-04-25T02:18:07;17.08;;;5.03;;
34019;SDS011;20895;51.034;3.742;2023-04-25T02:20:35;17.55;;;4.90;;
34019;SDS011;20895;51.034;3.742;2023-04-25T02:23:01;12.38;;;4.63;;
34019;SDS011;20895;51.034;3.742;2023-04-25T02:25:26;15.70;;;4.13;;
34019;SDS011;20895;51.034;3.742;2023-04-25T02:27:51;25.83;;;7.20;;
34019;SDS011;20895;51.034;3.742;2023-04-25T02:30:17;19.42;;;4.57;;
34019;SDS011;20895;51.034;3.742;2023-04-25T02:32:42;17.83;;;5.63;;
34019;SDS011;20895;51.034;3.742;2023-04-25T02:35:08;22.48;;;5.55;;
34019;SDS011;20895;51.034;3.742;2023-04-25T02:37:33;21.58;;;6.75;;
34019;SDS011;20895;51.034;3.742;2023-04-25T02:39:59;14.23;;;5.70;;
34019;SDS011;20895;51.034;3.742;2023-04-25T02:42:25;18.02;;;4.85;;
34019;SDS011;20895;51.034;3.742;2023-04-25T02:44:50;17.17;;;5.72;;
34019;SDS011;20895;51.034;3.742;2023-04-25T02:47:16;20.52;;;6.05;;
34019;SDS011;20895;51.034;3.742;2023-04-25T02:49:41;15.75;;;5.60;;
34019;SDS011;20895;51.034;3.742;2023-04-25T02:52:06;21.40;;;5.22;;
34019;SDS011;20895;51.034;3.742;2023-04-25T02:54:32;18.15;;;5.95;;
34019;SDS011;20895;51.034;3.742;2023-04-25T02:56:57;19.27;;;5.70;;
34019;SDS011;20895;51.034;3.742;2023-04-25T02:59:22;15.45;;;4.78;;
34019;SDS011;20895;51.034;3.742;2023-04-25T03:01:47;13.15;;;5.25;;
34019;SDS011;20895;51.034;3.742;2023-04-25T03:04:12;11.25;;;4.32;;
34019;SDS011;20895;51.034;3.742;2023-04-25T03:06:38;13.70;;;4.25;;
34019;SDS011;20895;51.034;3.742;2023-04-25T03:09:03;21.17;;;5.28;;
34019;SDS011;20895;51.034;3.742;2023-04-25T03:11:29;18.52;;;4.95;;
34019;SDS011;20895;51.034;3.742;2023-04-25T03:13:54;16.98;;;5.82;;
34019;SDS011;20895;51.034;3.742;2023-04-25T03:16:19;21.27;;;6.95;;
34019;SDS011;20895;51.034;3.742;2023-04-25T03:18:45;18.15;;;4.68;;
34019;SDS011;20895;51.034;3.742;2023-04-25T03:21:10;22.23;;;4.93;;
34019;SDS011;20895;51.034;3.742;2023-04-25T03:23:35;20.05;;;5.25;;
34019;SDS011;20895;51.034;3.742;2023-04-25T03:26:00;17.70;;;5.47;;
34019;SDS011;20895;51.034;3.742;2023-04-25T03:28:26;15.80;;;3.95;;
34019;SDS011;20895;51.034;3.742;2023-04-25T03:30:51;17.30;;;4.18;;
34019;SDS011;20895;51.034;3.742;2023-04-25T03:33:16;12.75;;;3.88;;
34019;SDS011;20895;51.034;3.742;2023-04-25T03:35:41;12.65;;;3.90;;
34019;SDS011;20895;51.034;3.742;2023-04-25T03:38:07;13.88;;;3.80;;
34019;SDS011;20895;51.034;3.742;2023-04-25T03:40:33;12.95;;;3.75;;
34019;SDS011;20895;51.034;3.742;2023-04-25T03:42:58;11.23;;;3.80;;
34019;SDS011;20895;51.034;3.742;2023-04-25T03:45:23;10.70;;;3.75;;
34019;SDS011;20895;51.034;3.742;2023-04-25T03:47:48;9.98;;;3.40;;
34019;SDS011;20895;51.034;3.742;2023-04-25T03:50:14;16.80;;;3.92;;
34019;SDS011;20895;51.034;3.742;2023-04-25T03:52:39;14.73;;;3.67;;
34019;SDS011;20895;51.034;3.742;2023-04-25T03:55:05;13.68;;;3.50;;
34019;SDS011;20895;51.034;3.742;2023-04-25T03:57:30;9.95;;;3.38;;
34019;SDS011;20895;51.034;3.742;2023-04-25T03:59:55;17.15;;;4.18;;
34019;SDS011;20895;51.034;3.742;2023-04-25T04:02:21;18.08;;;5.63;;
34019;SDS011;20895;51.034;3.742;2023-04-25T04:04:46;11.43;;;3.50;;
34019;SDS011;20895;51.034;3.742;2023-04-25T04:07:11;13.70;;;3.40;;
34019;SDS011;20895;51.034;3.742;2023-04-25T04:09:36;14.50;;;3.50;;
34019;SDS011;20895;51.034;3.742;2023-04-25T04:12:02;10.27;;;3.08;;
34019;SDS011;20895;51.034;3.742;2023-04-25T04:14:27;8.80;;;3.30;;
34019;SDS011;20895;51.034;3.742;2023-04-25T04:16:53;11.57;;;3.47;;
34019;SDS011;20895;51.034;3.742;2023-04-25T04:19:18;12.80;;;3.40;;
34019;SDS011;20895;51.034;3.742;2023-04-25T04:21:43;12.95;;;3.38;;
34019;SDS011;20895;51.034;3.742;2023-04-25T04:24:09;12.82;;;3.67;;
34019;SDS011;20895;51.034;3.742;2023-04-25T04:26:35;11.05;;;3.33;;
34019;SDS011;20895;51.034;3.742;2023-04-25T04:29:02;15.45;;;3.40;;
34019;SDS011;20895;51.034;3.742;2023-04-25T04:31:27;14.68;;;3.70;;
34019;SDS011;20895;51.034;3.742;2023-04-25T04:33:53;14.48;;;3.70;;
34019;SDS011;20895;51.034;3.742;2023-04-25T04:36:18;13.65;;;3.28;;
34019;SDS011;20895;51.034;3.742;2023-04-25T04:38:48;13.63;;;3.58;;
34019;SDS011;20895;51.034;3.742;2023-04-25T04:41:13;13.70;;;3.50;;
34019;SDS011;20895;51.034;3.742;2023-04-25T04:43:38;10.73;;;3.50;;
34019;SDS011;20895;51.034;3.742;2023-04-25T04:46:04;21.70;;;4.95;;
34019;SDS011;20895;51.034;3.742;2023-04-25T04:48:31;15.95;;;3.45;;
34019;SDS011;20895;51.034;3.742;2023-04-25T04:50:58;10.25;;;3.40;;
34019;SDS011;20895;51.034;3.742;2023-04-25T04:53:23;13.40;;;4.10;;
34019;SDS011;20895;51.034;3.742;2023-04-25T04:55:48;19.45;;;3.97;;
34019;SDS011;20895;51.034;3.742;2023-04-25T04:58:14;11.52;;;3.97;;
34019;SDS011;20895;51.034;3.742;2023-04-25T05:00:40;14.00;;;3.63;;
34019;SDS011;20895;51.034;3.742;2023-04-25T05:03:05;12.35;;;4.07;;
34019;SDS011;20895;51.034;3.742;2023-04-25T05:05:30;15.50;;;4.22;;
34019;SDS011;20895;51.034;3.742;2023-04-25T05:07:55;13.13;;;4.22;;
34019;SDS011;20895;51.034;3.742;2023-04-25T05:10:21;14.45;;;3.28;;
34019;SDS011;20895;51.034;3.742;2023-04-25T05:12:46;15.20;;;3.45;;
34019;SDS011;20895;51.034;3.742;2023-04-25T05:15:11;10.02;;;3.67;;
34019;SDS011;20895;51.034;3.742;2023-04-25T05:17:37;15.35;;;3.97;;
34019;SDS011;20895;51.034;3.742;2023-04-25T05:20:06;14.38;;;4.45;;
34019;SDS011;20895;51.034;3.742;2023-04-25T05:22:31;14.48;;;3.95;;
34019;SDS011;20895;51.034;3.742;2023-04-25T05:24:57;13.60;;;3.75;;
34019;SDS011;20895;51.034;3.742;2023-04-25T05:27:22;26.48;;;5.43;;
34019;SDS011;20895;51.034;3.742;2023-04-25T05:29:47;20.50;;;5.20;;
34019;SDS011;20895;51.034;3.742;2023-04-25T05:32:12;13.23;;;3.10;;
34019;SDS011;20895;51.034;3.742;2023-04-25T05:34:38;12.13;;;4.13;;
34019;SDS011;20895;51.034;3.742;2023-04-25T05:37:03;11.77;;;4.07;;
34019;SDS011;20895;51.034;3.742;2023-04-25T05:39:28;20.70;;;4.07;;
34019;SDS011;20895;51.034;3.742;2023-04-25T05:41:54;13.13;;;3.58;;
34019;SDS011;20895;51.034;3.742;2023-04-25T05:44:19;15.55;;;3.40;;
34019;SDS011;20895;51.034;3.742;2023-04-25T05:46:45;17.73;;;3.92;;
34019;SDS011;20895;51.034;3.742;2023-04-25T05:49:10;16.88;;;4.40;;
34019;SDS011;20895;51.034;3.742;2023-04-25T05:51:35;13.32;;;4.38;;
34019;SDS011;20895;51.034;3.742;2023-04-25T05:54:00;21.40;;;5.93;;
34019;SDS011;20895;51.034;3.742;2023-04-25T05:56:26;14.45;;;4.93;;
34019;SDS011;20895;51.034;3.742;2023-04-25T05:58:51;11.45;;;4.82;;
34019;SDS011;20895;51.034;3.742;2023-04-25T06:01:16;13.10;;;4.85;;
34019;SDS011;20895;51.034;3.742;2023-04-25T06:03:41;18.00;;;5.38;;
34019;SDS011;20895;51.034;3.742;2023-04-25T06:06:10;17.13;;;4.78;;
34019;SDS011;20895;51.034;3.742;2023-04-25T06:08:36;13.35;;;4.05;;
34019;SDS011;20895;51.034;3.742;2023-04-25T06:11:02;14.02;;;4.22;;
34019;SDS011;20895;51.034;3.742;2023-04-25T06:13:27;14.95;;;5.13;;
34019;SDS011;20895;51.034;3.742;2023-04-25T06:15:53;23.75;;;7.95;;
34019;SDS011;20895;51.034;3.742;2023-04-25T06:18:18;7.82;;;3.22;;
34019;SDS011;20895;51.034;3.742;2023-04-25T06:20:44;9.57;;;2.47;;
34019;SDS011;20895;51.034;3.742;2023-04-25T06:23:09;16.83;;;4.28;;
34019;SDS011;20895;51.034;3.742;2023-04-25T06:25:34;11.10;;;3.72;;
34019;SDS011;20895;51.034;3.742;2023-04-25T06:28:00;12.77;;;2.70;;
34019;SDS011;20895;51.034;3.742;2023-04-25T06:30:25;12.18;;;4.15;;
34019;SDS011;20895;51.034;3.742;2023-04-25T06:32:54;15.18;;;2.70;;
34019;SDS011;20895;51.034;3.742;2023-04-25T06:35:19;11.57;;;2.90;;
34019;SDS011;20895;51.034;3.742;2023-04-25T06:37:44;9.23;;;2.80;;
34019;SDS011;20895;51.034;3.742;2023-04-25T06:40:10;13.50;;;2.45;;
34019;SDS011;20895;51.034;3.742;2023-04-25T06:42:36;9.88;;;2.65;;
34019;SDS011;20895;51.034;3.742;2023-04-25T06:45:01;15.20;;;3.00;;
34019;SDS011;20895;51.034;3.742;2023-04-25T06:47:26;8.95;;;2.53;;
34019;SDS011;20895;51.034;3.742;2023-04-25T06:49:51;9.48;;;3.85;;
34019;SDS011;20895;51.034;3.742;2023-04-25T06:52:17;8.52;;;2.22;;
34019;SDS011;20895;51.034;3.742;2023-04-25T06:54:43;8.35;;;2.30;;
34019;SDS011;20895;51.034;3.742;2023-04-25T06:57:08;7.22;;;2.00;;
34019;SDS011;20895;51.034;3.742;2023-04-25T06:59:33;13.13;;;2.83;;
34019;SDS011;20895;51.034;3.742;2023-04-25T07:01:58;12.38;;;3.30;;
34019;SDS011;20895;51.034;3.742;2023-04-25T07:04:24;10.02;;;2.53;;
34019;SDS011;20895;51.034;3.742;2023-04-25T07:06:49;7.53;;;2.28;;
34019;SDS011;20895;51.034;3.742;2023-04-25T07:09:15;8.10;;;1.92;;
34019;SDS011;20895;51.034;3.742;2023-04-25T07:11:40;5.82;;;1.92;;
34019;SDS011;20895;51.034;3.742;2023-04-25T07:14:06;11.88;;;2.53;;
34019;SDS011;20895;51.034;3.742;2023-04-25T07:16:31;10.75;;;2.97;;
34019;SDS011;20895;51.034;3.742;2023-04-25T07:18:56;4.35;;;2.00;;
34019;SDS011;20895;51.034;3.742;2023-04-25T07:21:21;9.88;;;2.47;;
34019;SDS011;20895;51.034;3.742;2023-04-25T07:23:47;9.63;;;3.03;;
34019;SDS011;20895;51.034;3.742;2023-04-25T07:26:12;7.90;;;2.00;;
34019;SDS011;20895;51.034;3.742;2023-04-25T07:28:37;8.50;;;2.05;;
34019;SDS011;20895;51.034;3.742;2023-04-25T07:31:02;4.22;;;1.73;;
34019;SDS011;20895;51.034;3.742;2023-04-25T07:33:28;6.65;;;2.28;;
34019;SDS011;20895;51.034;3.742;2023-04-25T07:35:53;10.50;;;2.92;;
34019;SDS011;20895;51.034;3.742;2023-04-25T07:38:19;7.85;;;2.08;;
34019;SDS011;20895;51.034;3.742;2023-04-25T07:40:45;10.40;;;2.28;;
34019;SDS011;20895;51.034;3.742;2023-04-25T07:43:10;14.48;;;2.83;;
34019;SDS011;20895;51.034;3.742;2023-04-25T07:45:39;8.82;;;2.08;;
34019;SDS011;20895;51.034;3.742;2023-04-25T07:48:04;8.35;;;2.70;;
34019;SDS011;20895;51.034;3.742;2023-04-25T07:50:29;6.63;;;1.85;;
34019;SDS011;20895;51.034;3.742;2023-04-25T07:52:55;10.70;;;2.75;;
34019;SDS011;20895;51.034;3.742;2023-04-25T07:55:20;6.00;;;2.65;;
34019;SDS011;20895;51.034;3.742;2023-04-25T07:57:46;8.23;;;1.77;;
34019;SDS011;20895;51.034;3.742;2023-04-25T08:00:11;6.70;;;2.05;;
34019;SDS011;20895;51.034;3.742;2023-04-25T08:02:37;7.60;;;2.67;;
34019;SDS011;20895;51.034;3.742;2023-04-25T08:05:03;9.43;;;2.28;;
34019;SDS011;20895;51.034;3.742;2023-04-25T08:07:28;5.72;;;2.13;;
34019;SDS011;20895;51.034;3.742;2023-04-25T08:09:54;10.25;;;2.55;;
34019;SDS011;20895;51.034;3.742;2023-04-25T08:12:19;9.05;;;1.80;;
34019;SDS011;20895;51.034;3.742;2023-04-25T08:14:44;8.88;;;2.10;;
34019;SDS011;20895;51.034;3.742;2023-04-25T08:17:10;6.93;;;1.80;;
34019;SDS011;20895;51.034;3.742;2023-04-25T08:19:35;5.25;;;1.92;;
34019;SDS011;20895;51.034;3.742;2023-04-25T08:22:00;7.35;;;2.05;;
34019;SDS011;20895;51.034;3.742;2023-04-25T08:24:25;5.85;;;1.63;;
34019;SDS011;20895;51.034;3.742;2023-04-25T08:26:51;5.32;;;2.38;;
34019;SDS011;20895;51.034;3.742;2023-04-25T08:29:16;8.20;;;1.90;;
34019;SDS011;20895;51.034;3.742;2023-04-25T08:31:42;5.82;;;1.83;;
34019;SDS011;20895;51.034;3.742;2023-04-25T08:34:07;5.03;;;1.55;;
34019;SDS011;20895;51.034;3.742;2023-04-25T08:36:32;8.55;;;2.60;;
34019;SDS011;20895;51.034;3.742;2023-04-25T08:38:58;6.25;;;1.63;;
34019;SDS011;20895;51.034;3.742;2023-04-25T08:41:23;8.18;;;1.60;;
34019;SDS011;20895;51.034;3.742;2023-04-25T08:43:49;5.65;;;1.58;;
34019;SDS011;20895;51.034;3.742;2023-04-25T08:46:17;7.88;;;1.90;;
34019;SDS011;20895;51.034;3.742;2023-04-25T08:48:42;8.20;;;1.48;;
34019;SDS011;20895;51.034;3.742;2023-04-25T08:51:09;3.60;;;1.40;;
34019;SDS011;20895;51.034;3.742;2023-04-25T08:53:35;7.30;;;1.52;;
34019;SDS011;20895;51.034;3.742;2023-04-25T08:56:01;7.47;;;2.30;;
34019;SDS011;20895;51.034;3.742;2023-04-25T08:58:27;5.53;;;1.55;;
34019;SDS011;20895;51.034;3.742;2023-04-25T09:00:52;6.93;;;1.35;;
34019;SDS011;20895;51.034;3.742;2023-04-25T09:03:18;8.23;;;1.52;;
34019;SDS011;20895;51.034;3.742;2023-04-25T09:05:43;6.57;;;2.03;;
34019;SDS011;20895;51.034;3.742;2023-04-25T09:08:09;5.88;;;1.65;;
34019;SDS011;20895;51.034;3.742;2023-04-25T09:10:34;7.07;;;1.30;;
34019;SDS011;20895;51.034;3.742;2023-04-25T09:13:07;7.00;;;1.70;;
34019;SDS011;20895;51.034;3.742;2023-04-25T09:15:34;7.70;;;1.98;;
34019;SDS011;20895;51.034;3.742;2023-04-25T09:18:11;10.43;;;2.30;;
34019;SDS011;20895;51.034;3.742;2023-04-25T09:20:43;7.40;;;2.40;;
34019;SDS011;20895;51.034;3.742;2023-04-25T09:23:08;9.40;;;1.63;;
34019;SDS011;20895;51.034;3.742;2023-04-25T09:25:35;5.88;;;1.73;;
34019;SDS011;20895;51.034;3.742;2023-04-25T09:28:04;7.18;;;2.35;;
34019;SDS011;20895;51.034;3.742;2023-04-25T09:30:29;6.50;;;1.67;;
34019;SDS011;20895;51.034;3.742;2023-04-25T09:33:09;5.20;;;2.20;;
34019;SDS011;20895;51.034;3.742;2023-04-25T09:35:38;7.40;;;1.98;;
34019;SDS011;20895;51.034;3.742;2023-04-25T09:38:10;7.97;;;2.30;;
34019;SDS011;20895;51.034;3.742;2023-04-25T09:40:43;6.43;;;2.20;;
34019;SDS011;20895;51.034;3.742;2023-04-25T09:43:26;12.15;;;1.92;;
34019;SDS011;20895;51.034;3.742;2023-04-25T09:45:53;8.70;;;2.13;;
34019;SDS011;20895;51.034;3.742;2023-04-25T09:48:19;8.07;;;2.80;;
34019;SDS011;20895;51.034;3.742;2023-04-25T09:55:57;7.90;;;2.05;;
34019;SDS011;20895;51.034;3.742;2023-04-25T09:58:24;4.93;;;1.50;;
34019;SDS011;20895;51.034;3.742;2023-04-25T10:00:51;6.25;;;1.40;;
34019;SDS011;20895;51.034;3.742;2023-04-25T10:03:17;6.90;;;1.33;;
34019;SDS011;20895;51.034;3.742;2023-04-25T10:05:42;5.60;;;1.52;;
34019;SDS011;20895;51.034;3.742;2023-04-25T10:08:08;7.85;;;1.40;;
34019;SDS011;20895;51.034;3.742;2023-04-25T10:10:33;6.25;;;2.15;;
34019;SDS011;20895;51.034;3.742;2023-04-25T10:13:02;5.25;;;1.30;;
34019;SDS011;20895;51.034;3.742;2023-04-25T10:15:28;7.47;;;1.50;;
34019;SDS011;20895;51.034;3.742;2023-04-25T10:17:54;4.35;;;1.20;;
34019;SDS011;20895;51.034;3.742;2023-04-25T10:20:19;3.72;;;1.35;;
34019;SDS011;20895;51.034;3.742;2023-04-25T10:22:45;4.82;;;1.30;;
34019;SDS011;20895;51.034;3.742;2023-04-25T10:25:11;3.08;;;1.50;;
34019;SDS011;20895;51.034;3.742;2023-04-25T10:27:36;4.65;;;1.42;;
34019;SDS011;20895;51.034;3.742;2023-04-25T10:30:14;4.97;;;1.70;;
34019;SDS011;20895;51.034;3.742;2023-04-25T10:32:43;6.03;;;1.52;;
34019;SDS011;20895;51.034;3.742;2023-04-25T10:35:13;6.28;;;1.48;;
34019;SDS011;20895;51.034;3.742;2023-04-25T10:40:24;9.38;;;1.92;;
34019;SDS011;20895;51.034;3.742;2023-04-25T10:42:51;6.15;;;1.67;;
34019;SDS011;20895;51.034;3.742;2023-04-25T10:45:16;10.02;;;2.15;;
34019;SDS011;20895;51.034;3.742;2023-04-25T10:47:45;3.47;;;1.80;;
34019;SDS011;20895;51.034;3.742;2023-04-25T10:50:11;6.20;;;1.90;;
34019;SDS011;20895;51.034;3.742;2023-04-25T10:52:38;7.82;;;2.20;;
34019;SDS011;20895;51.034;3.742;2023-04-25T10:55:04;6.75;;;1.60;;
34019;SDS011;20895;51.034;3.742;2023-04-25T10:57:30;3.85;;;1.30;;
34019;SDS011;20895;51.034;3.742;2023-04-25T10:59:59;5.13;;;1.60;;
34019;SDS011;20895;51.034;3.742;2023-04-25T11:02:28;6.18;;;2.28;;
34019;SDS011;20895;51.034;3.742;2023-04-25T11:04:54;6.45;;;5.72;;
34019;SDS011;20895;51.034;3.742;2023-04-25T11:07:23;7.70;;;1.92;;
34019;SDS011;20895;51.034;3.742;2023-04-25T11:09:51;8.32;;;2.13;;
34019;SDS011;20895;51.034;3.742;2023-04-25T11:12:16;8.30;;;1.80;;
34019;SDS011;20895;51.034;3.742;2023-04-25T11:14:42;10.52;;;1.85;;
34019;SDS011;20895;51.034;3.742;2023-04-25T11:17:08;3.47;;;1.10;;
34019;SDS011;20895;51.034;3.742;2023-04-25T11:19:33;5.47;;;1.08;;
34019;SDS011;20895;51.034;3.742;2023-04-25T11:21:59;5.32;;;1.33;;
34019;SDS011;20895;51.034;3.742;2023-04-25T11:24:27;3.22;;;1.55;;
34019;SDS011;20895;51.034;3.742;2023-04-25T11:26:52;5.43;;;1.60;;
34019;SDS011;20895;51.034;3.742;2023-04-25T11:29:17;2.60;;;1.00;;
34019;SDS011;20895;51.034;3.742;2023-04-25T11:31:44;4.35;;;1.38;;
34019;SDS011;20895;51.034;3.742;2023-04-25T11:34:10;4.65;;;1.60;;
34019;SDS011;20895;51.034;3.742;2023-04-25T11:36:35;5.38;;;1.50;;
34019;SDS011;20895;51.034;3.742;2023-04-25T11:39:03;3.40;;;1.13;;
34019;SDS011;20895;51.034;3.742;2023-04-25T11:41:28;2.45;;;1.00;;
34019;SDS011;20895;51.034;3.742;2023-04-25T11:43:53;4.65;;;1.35;;
34019;SDS011;20895;51.034;3.742;2023-04-25T11:46:19;6.28;;;1.17;;
34019;SDS011;20895;51.034;3.742;2023-04-25T11:48:45;8.65;;;1.50;;
34019;SDS011;20895;51.034;3.742;2023-04-25T11:51:11;5.53;;;1.42;;
34019;SDS011;20895;51.034;3.742;2023-04-25T11:53:36;7.50;;;1.80;;
34019;SDS011;20895;51.034;3.742;2023-04-25T11:56:09;5.07;;;1.95;;
34019;SDS011;20895;51.034;3.742;2023-04-25T11:58:53;3.85;;;1.13;;
34019;SDS011;20895;51.034;3.742;2023-04-25T12:04:23;4.82;;;1.65;;
34019;SDS011;20895;51.034;3.742;2023-04-25T12:06:49;4.80;;;1.33;;
34019;SDS011;20895;51.034;3.742;2023-04-25T12:09:16;5.47;;;1.20;;
34019;SDS011;20895;51.034;3.742;2023-04-25T12:11:52;6.65;;;3.75;;
34019;SDS011;20895;51.034;3.742;2023-04-25T12:14:21;4.40;;;1.52;;
34019;SDS011;20895;51.034;3.742;2023-04-25T12:16:48;4.50;;;1.52;;
34019;SDS011;20895;51.034;3.742;2023-04-25T12:19:14;4.43;;;1.30;;
34019;SDS011;20895;51.034;3.742;2023-04-25T12:21:40;8.32;;;1.90;;
34019;SDS011;20895;51.034;3.742;2023-04-25T12:24:12;6.63;;;1.70;;
34019;SDS011;20895;51.034;3.742;2023-04-25T12:29:34;4.05;;;1.20;;
34019;SDS011;20895;51.034;3.742;2023-04-25T12:31:59;2.47;;;1.30;;
34019;SDS011;20895;51.034;3.742;2023-04-25T12:34:26;4.18;;;1.38;;
34019;SDS011;20895;51.034;3.742;2023-04-25T12:36:52;5.18;;;1.33;;
34019;SDS011;20895;51.034;3.742;2023-04-25T12:39:21;5.05;;;1.80;;
34019;SDS011;20895;51.034;3.742;2023-04-25T12:41:47;7.22;;;1.02;;
34019;SDS011;20895;51.034;3.742;2023-04-25T12:44:12;5.82;;;1.60;;
34019;SDS011;20895;51.034;3.742;2023-04-25T12:46:38;6.07;;;1.95;;
34019;SDS011;20895;51.034;3.742;2023-04-25T12:49:04;10.93;;;2.15;;
34019;SDS011;20895;51.034;3.742;2023-04-25T12:51:29;9.55;;;2.78;;
34019;SDS011;20895;51.034;3.742;2023-04-25T12:53:55;7.43;;;2.05;;
34019;SDS011;20895;51.034;3.742;2023-04-25T12:56:20;6.82;;;2.13;;
34019;SDS011;20895;51.034;3.742;2023-04-25T12:58:46;8.60;;;1.60;;
34019;SDS011;20895;51.034;3.742;2023-04-25T13:01:12;11.55;;;2.65;;
34019;SDS011;20895;51.034;3.742;2023-04-25T13:03:39;6.20;;;1.70;;
34019;SDS011;20895;51.034;3.742;2023-04-25T13:06:04;4.07;;;1.30;;
34019;SDS011;20895;51.034;3.742;2023-04-25T13:08:30;4.47;;;1.40;;
34019;SDS011;20895;51.034;3.742;2023-04-25T13:10:55;6.95;;;1.65;;
34019;SDS011;20895;51.034;3.742;2023-04-25T13:13:20;6.45;;;1.58;;
34019;SDS011;20895;51.034;3.742;2023-04-25T13:15:45;8.93;;;1.63;;
34019;SDS011;20895;51.034;3.742;2023-04-25T13:18:11;8.30;;;1.58;;
34019;SDS011;20895;51.034;3.742;2023-04-25T13:20:36;4.50;;;1.45;;
34019;SDS011;20895;51.034;3.742;2023-04-25T13:23:01;3.92;;;1.52;;
34019;SDS011;20895;51.034;3.742;2023-04-25T13:25:27;7.93;;;1.60;;
34019;SDS011;20895;51.034;3.742;2023-04-25T13:27:52;10.95;;;2.95;;
34019;SDS011;20895;51.034;3.742;2023-04-25T13:30:17;7.85;;;1.90;;
34019;SDS011;20895;51.034;3.742;2023-04-25T13:32:42;5.75;;;1.63;;
34019;SDS011;20895;51.034;3.742;2023-04-25T13:35:11;8.45;;;2.17;;
34019;SDS011;20895;51.034;3.742;2023-04-25T13:37:37;6.85;;;1.75;;
34019;SDS011;20895;51.034;3.742;2023-04-25T13:40:03;3.88;;;1.20;;
34019;SDS011;20895;51.034;3.742;2023-04-25T13:42:30;8.23;;;2.70;;
34019;SDS011;20895;51.034;3.742;2023-04-25T13:44:55;5.18;;;1.50;;
34019;SDS011;20895;51.034;3.742;2023-04-25T13:47:20;5.20;;;1.80;;
34019;SDS011;20895;51.034;3.742;2023-04-25T13:49:46;5.10;;;1.40;;
34019;SDS011;20895;51.034;3.742;2023-04-25T13:52:11;12.98;;;2.70;;
34019;SDS011;20895;51.034;3.742;2023-04-25T13:54:36;7.82;;;2.15;;
34019;SDS011;20895;51.034;3.742;2023-04-25T13:57:02;3.13;;;1.30;;
34019;SDS011;20895;51.034;3.742;2023-04-25T13:59:27;6.82;;;1.30;;
34019;SDS011;20895;51.034;3.742;2023-04-25T14:01:53;4.47;;;1.45;;
34019;SDS011;20895;51.034;3.742;2023-04-25T14:04:18;2.55;;;1.08;;
34019;SDS011;20895;51.034;3.742;2023-04-25T14:06:44;4.78;;;1.20;;
34019;SDS011;20895;51.034;3.742;2023-04-25T14:09:09;8.18;;;1.27;;
34019;SDS011;20895;51.034;3.742;2023-04-25T14:11:37;5.68;;;1.52;;
34019;SDS011;20895;51.034;3.742;2023-04-25T14:14:02;4.72;;;1.08;;
34019;SDS011;20895;51.034;3.742;2023-04-25T14:16:29;3.30;;;1.38;;
34019;SDS011;20895;51.034;3.742;2023-04-25T14:18:56;6.35;;;1.70;;
34019;SDS011;20895;51.034;3.742;2023-04-25T14:21:23;8.20;;;1.40;;
34019;SDS011;20895;51.034;3.742;2023-04-25T14:23:48;6.72;;;1.70;;
34019;SDS011;20895;51.034;3.742;2023-04-25T14:26:13;7.25;;;1.77;;
34019;SDS011;20895;51.034;3.742;2023-04-25T14:28:39;6.47;;;1.85;;
34019;SDS011;20895;51.034;3.742;2023-04-25T14:31:04;6.57;;;1.23;;
34019;SDS011;20895;51.034;3.742;2023-04-25T14:33:29;5.18;;;1.30;;
34019;SDS011;20895;51.034;3.742;2023-04-25T14:35:55;4.82;;;1.50;;
34019;SDS011;20895;51.034;3.742;2023-04-25T14:38:20;5.60;;;1.60;;
34019;SDS011;20895;51.034;3.742;2023-04-25T14:40:48;4.55;;;1.83;;
34019;SDS011;20895;51.034;3.742;2023-04-25T14:43:13;4.85;;;1.30;;
34019;SDS011;20895;51.034;3.742;2023-04-25T14:45:39;6.05;;;1.40;;
34019;SDS011;20895;51.034;3.742;2023-04-25T14:48:04;4.72;;;1.25;;